createdAt,value
2022-10-05T00:00:19.633Z,100957.75
2022-10-05T00:02:47.929Z,100962.38
2022-10-05T00:05:29.418Z,100954.56
2022-10-05T00:08:02.172Z,100969.81
2022-10-05T00:10:29.408Z,100958.22
2022-10-05T00:12:56.307Z,100955.66
2022-10-05T00:15:23.591Z,100959.91
2022-10-05T00:17:50.230Z,100963.59
2022-10-05T00:20:23.337Z,100968.75
2022-10-05T00:22:56.473Z,100961.41
2022-10-05T00:25:24.033Z,100965.06
2022-10-05T00:27:58.639Z,100964.44
2022-10-05T00:30:31.075Z,100969.09
2022-10-05T00:32:59.865Z,100972.63
2022-10-05T00:35:29.362Z,100966.53
2022-10-05T00:37:56.497Z,100973.59
2022-10-05T00:40:37.392Z,100976.50
2022-10-05T00:43:16.043Z,100974.81
2022-10-05T00:45:52.402Z,100978.72
2022-10-05T00:48:26.740Z,100973.56
2022-10-05T00:51:24.016Z,100981.88
2022-10-05T00:54:18.357Z,100980.16
2022-10-05T00:57:06.424Z,100980.38
2022-10-05T00:59:44.754Z,100979.41
2022-10-05T01:03:12.870Z,100986.75
2022-10-05T01:05:47.637Z,100986.75
2022-10-05T01:08:32.928Z,100993.81
2022-10-05T01:10:59.512Z,100993.81
2022-10-05T01:13:31.844Z,100993.81
2022-10-05T01:16:04.723Z,100993.56
2022-10-05T01:18:53.641Z,100992.72
2022-10-05T01:21:20.192Z,100999.19
2022-10-05T01:24:14.394Z,100998.44
2022-10-05T01:27:09.661Z,101005.00
2022-10-05T01:30:11.202Z,101008.69
2022-10-05T01:32:44.429Z,101014.06
2022-10-05T01:35:35.790Z,101014.69
2022-10-05T01:38:13.965Z,101016.75
2022-10-05T01:41:20.662Z,101014.28
2022-10-05T01:43:52.995Z,101015.38
2022-10-05T01:46:22.478Z,101021.84
2022-10-05T01:49:33.066Z,101027.44
2022-10-05T01:52:51.782Z,101032.06
2022-10-05T01:55:40.557Z,101030.88
2022-10-05T01:58:15.764Z,101029.16
2022-10-05T02:00:55.918Z,101030.88
2022-10-05T02:03:33.465Z,101034.50
2022-10-05T02:06:06.409Z,101034.50
2022-10-05T02:08:50.022Z,101045.47
2022-10-05T02:11:16.674Z,101053.53
2022-10-05T02:13:50.039Z,101049.38
2022-10-05T02:16:24.542Z,101049.63
2022-10-05T02:19:09.328Z,101047.03
2022-10-05T02:21:36.776Z,101043.47
2022-10-05T02:24:09.948Z,101048.13
2022-10-05T02:26:39.367Z,101050.06
2022-10-05T02:29:12.701Z,101055.44
2022-10-05T02:32:22.055Z,101055.66
2022-10-05T02:34:48.749Z,101051.38
2022-10-05T02:37:34.490Z,101052.66
2022-10-05T02:40:42.583Z,101053.88
2022-10-05T02:43:44.492Z,101049.69
2022-10-05T02:46:35.493Z,101046.28
2022-10-05T02:49:16.983Z,101046.50
2022-10-05T02:52:06.597Z,101048.66
2022-10-05T02:54:59.138Z,101056.81
2022-10-05T02:57:37.424Z,101052.28
2022-10-05T03:00:21.305Z,101058.72
2022-10-05T03:02:52.013Z,101062.63
2022-10-05T03:05:28.207Z,101052.97
2022-10-05T03:08:06.597Z,101056.59
2022-10-05T03:10:46.133Z,101045.66
2022-10-05T03:13:21.971Z,101047.38
2022-10-05T03:16:15.524Z,101033.09
2022-10-05T03:18:59.114Z,101031.28
2022-10-05T03:21:35.840Z,101034.91
2022-10-05T03:24:11.312Z,101027.84
2022-10-05T03:27:02.415Z,101024.41
2022-10-05T03:30:18.124Z,101026.56
2022-10-05T03:33:02.935Z,101030.22
2022-10-05T03:35:58.557Z,101033.00
2022-10-05T03:38:43.833Z,101039.47
2022-10-05T03:41:25.475Z,101043.09
2022-10-05T03:44:09.894Z,101048.25
2022-10-05T03:46:40.031Z,101049.97
2022-10-05T03:49:17.469Z,101046.53
2022-10-05T03:51:51.422Z,101050.94
2022-10-05T03:54:23.671Z,101051.88
2022-10-05T03:57:01.880Z,101050.19
2022-10-05T03:59:39.370Z,101060.72
2022-10-05T04:02:12.904Z,101057.25
2022-10-05T04:04:49.699Z,101062.84
2022-10-05T04:07:32.274Z,101063.94
2022-10-05T04:10:01.280Z,101063.94
2022-10-05T04:12:37.172Z,101066.72
2022-10-05T04:15:08.551Z,101070.38
2022-10-05T04:17:42.380Z,101073.06
2022-10-05T04:20:24.971Z,101074.88
2022-10-05T04:23:04.842Z,101075.72
2022-10-05T04:25:39.775Z,101082.81
2022-10-05T04:28:25.227Z,101078.41
2022-10-05T04:30:54.984Z,101076.56
2022-10-05T04:33:22.277Z,101086.44
2022-10-05T04:35:48.822Z,101081.19
2022-10-05T04:39:03.734Z,101084.94
2022-10-05T04:42:10.550Z,101084.94
2022-10-05T04:45:19.858Z,101092.03
2022-10-05T04:48:20.826Z,101097.41
2022-10-05T04:51:14.190Z,101099.13
2022-10-05T04:53:49.603Z,101096.34
2022-10-05T04:56:21.292Z,101100.59
2022-10-05T04:59:12.938Z,101097.69
2022-10-05T05:02:17.717Z,101109.94
2022-10-05T05:05:12.629Z,101106.81
2022-10-05T05:07:51.708Z,101113.25
2022-10-05T05:10:24.249Z,101118.19
2022-10-05T05:13:26.447Z,101117.50
2022-10-05T05:16:04.036Z,101118.06
2022-10-05T05:19:01.555Z,101118.78
2022-10-05T05:21:40.590Z,101124.06
2022-10-05T05:24:10.441Z,101131.03
2022-10-05T05:26:58.753Z,101123.50
2022-10-05T05:30:00.371Z,101123.66
2022-10-05T05:32:41.867Z,101127.06
2022-10-05T05:35:14.510Z,101135.63
2022-10-05T05:37:54.758Z,101144.19
2022-10-05T05:40:28.038Z,101142.03
2022-10-05T05:43:08.514Z,101143.06
2022-10-05T05:45:47.004Z,101150.41
2022-10-05T05:48:30.160Z,101147.03
2022-10-05T05:51:29.064Z,101154.56
2022-10-05T05:54:29.689Z,101145.91
2022-10-05T05:57:13.900Z,101160.59
2022-10-05T05:59:55.436Z,101150.16
2022-10-05T06:02:30.885Z,101153.84
2022-10-05T06:05:06.217Z,101154.34
2022-10-05T06:07:36.769Z,101164.41
2022-10-05T06:10:23.151Z,101165.16
2022-10-05T06:12:54.987Z,101169.53
2022-10-05T06:15:30.767Z,101177.63
2022-10-05T06:18:02.351Z,101180.28
2022-10-05T06:20:33.318Z,101178.06
2022-10-05T06:23:04.945Z,101185.91
2022-10-05T06:25:52.364Z,101185.13
2022-10-05T06:28:19.711Z,101195.66
2022-10-05T06:31:01.000Z,101195.13
2022-10-05T06:33:50.325Z,101184.81
2022-10-05T06:36:42.031Z,101188.22
2022-10-05T06:39:23.639Z,101195.72
2022-10-05T06:42:13.748Z,101190.00
2022-10-05T06:44:53.595Z,101197.94
2022-10-05T06:47:38.081Z,101203.69
2022-10-05T06:50:12.686Z,101201.50
2022-10-05T06:53:09.115Z,101191.63
2022-10-05T06:55:47.792Z,101204.78
2022-10-05T06:58:36.499Z,101208.84
2022-10-05T07:01:21.621Z,101200.66
2022-10-05T07:04:00.125Z,101205.22
2022-10-05T07:06:51.756Z,101202.66
2022-10-05T07:09:29.681Z,101211.19
2022-10-05T07:12:07.799Z,101211.44
2022-10-05T07:15:03.651Z,101205.91
2022-10-05T07:17:39.589Z,101213.22
2022-10-05T07:20:26.411Z,101213.00
2022-10-05T07:23:11.954Z,101212.91
2022-10-05T07:26:00.419Z,101217.22
2022-10-05T07:28:29.958Z,101223.16
2022-10-05T07:31:04.307Z,101222.56
2022-10-05T07:33:54.005Z,101228.06
2022-10-05T07:36:54.386Z,101227.59
2022-10-05T07:39:58.378Z,101230.78
2022-10-05T07:42:30.343Z,101234.47
2022-10-05T07:45:34.517Z,101240.78
2022-10-05T07:48:13.727Z,101244.41
2022-10-05T07:51:06.613Z,101247.97
2022-10-05T07:53:38.411Z,101243.09
2022-10-05T07:56:10.057Z,101240.31
2022-10-05T07:58:58.136Z,101245.53
2022-10-05T08:01:37.508Z,101237.41
2022-10-05T08:04:32.799Z,101242.63
2022-10-05T08:07:07.030Z,101250.38
2022-10-05T08:09:39.035Z,101249.91
2022-10-05T08:12:38.011Z,101254.88
2022-10-05T08:15:20.669Z,101251.66
2022-10-05T08:18:00.508Z,101253.59
2022-10-05T08:20:48.090Z,101250.28
2022-10-05T08:23:26.237Z,101255.03
2022-10-05T08:26:29.096Z,101252.66
2022-10-05T08:29:20.260Z,101259.63
2022-10-05T08:31:55.200Z,101258.03
2022-10-05T08:34:27.834Z,101273.97
2022-10-05T08:37:07.138Z,101273.31
2022-10-05T08:39:42.666Z,101275.06
2022-10-05T08:42:21.178Z,101273.78
2022-10-05T08:45:06.779Z,101276.50
2022-10-05T08:48:11.506Z,101279.84
2022-10-05T08:50:47.637Z,101282.56
2022-10-05T08:53:32.682Z,101278.88
2022-10-05T08:56:28.837Z,101287.06
2022-10-05T08:59:01.418Z,101288.59
2022-10-05T09:01:52.071Z,101282.97
2022-10-05T09:04:45.692Z,101291.50
2022-10-05T09:08:16.828Z,101303.00
2022-10-05T09:11:18.909Z,101293.78
2022-10-05T09:14:27.821Z,101290.75
2022-10-05T09:17:05.063Z,101279.78
2022-10-05T09:20:15.324Z,101278.97
2022-10-05T09:23:10.469Z,101274.13
2022-10-05T09:26:00.514Z,101273.81
2022-10-05T09:29:09.227Z,101274.13
2022-10-05T09:50:52.567Z,101276.94
2022-10-05T09:53:41.119Z,101266.44
2022-10-05T09:56:21.248Z,101277.69
2022-10-05T09:59:15.978Z,101271.59
2022-10-05T10:02:05.159Z,101267.25
2022-10-05T10:05:28.337Z,101270.13
2022-10-05T10:08:12.319Z,101268.16
2022-10-05T10:11:00.260Z,101269.91
2022-10-05T10:13:54.947Z,101271.13
2022-10-05T10:16:33.419Z,101257.97
2022-10-05T10:19:24.844Z,101259.16
2022-10-05T10:22:20.054Z,101256.47
2022-10-05T10:25:32.540Z,101253.16
2022-10-05T10:28:26.384Z,101244.44
2022-10-05T10:31:02.138Z,101253.09
2022-10-05T10:33:35.021Z,101258.53
2022-10-05T10:36:20.941Z,101254.38
2022-10-05T10:39:00.084Z,101252.09
2022-10-05T10:42:00.436Z,101250.19
2022-10-05T10:44:55.593Z,101248.19
2022-10-05T10:47:35.469Z,101245.22
2022-10-05T10:50:24.375Z,101248.22
2022-10-05T10:53:29.094Z,101240.19
2022-10-05T10:56:08.725Z,101241.53
2022-10-05T10:58:41.042Z,101242.50
2022-10-05T11:01:19.873Z,101240.44
2022-10-05T11:04:11.315Z,101233.34
2022-10-05T11:07:08.781Z,101232.03
2022-10-05T11:10:26.218Z,101234.31
2022-10-05T11:13:29.304Z,101228.53
2022-10-05T11:16:17.280Z,101223.31
2022-10-05T11:19:11.738Z,101223.94
2022-10-05T11:22:35.863Z,101223.25
2022-10-05T11:25:31.206Z,101215.03
2022-10-05T11:28:53.021Z,101219.56
2022-10-05T11:47:09.286Z,101200.19
2022-10-05T11:49:44.596Z,101206.53
2022-10-05T11:55:37.562Z,101202.50
2022-10-05T11:58:23.754Z,101215.03
2022-10-05T12:01:01.919Z,101204.47
2022-10-05T12:07:08.272Z,101196.06
2022-10-05T12:10:08.220Z,101186.09
2022-10-05T12:13:19.418Z,101184.75
2022-10-05T12:16:10.623Z,101179.56
2022-10-05T12:18:39.498Z,101176.81
2022-10-05T12:21:25.127Z,101169.34
2022-10-05T12:24:09.625Z,101160.19
2022-10-05T12:32:39.295Z,101151.13
2022-10-05T12:35:47.480Z,101144.78
2022-10-05T12:38:29.015Z,101153.59
2022-10-05T12:41:05.168Z,101159.00
2022-10-05T12:43:44.024Z,101148.75
2022-10-05T12:46:29.237Z,101148.13
2022-10-05T12:49:26.437Z,101154.56
2022-10-05T12:52:02.155Z,101147.19
2022-10-05T12:54:54.938Z,101154.28
2022-10-05T12:57:40.973Z,101151.91
2022-10-05T13:00:17.866Z,101155.31
2022-10-05T13:02:51.040Z,101150.81
2022-10-05T13:05:57.852Z,101147.13
2022-10-05T13:08:53.871Z,101143.59
2022-10-05T13:11:31.590Z,101137.63
2022-10-05T13:14:35.744Z,101139.09
2022-10-05T13:17:15.973Z,101139.41
2022-10-05T13:19:47.021Z,101132.56
2022-10-05T13:22:26.313Z,101138.59
2022-10-05T13:25:01.886Z,101134.78
2022-10-05T13:27:44.996Z,101137.66
2022-10-05T13:30:19.363Z,101128.47
2022-10-05T13:32:49.948Z,101142.69
2022-10-05T13:35:38.054Z,101130.22
2022-10-05T13:38:20.263Z,101137.13
2022-10-05T13:41:15.359Z,101133.22
2022-10-05T13:43:57.717Z,101126.53
2022-10-05T13:46:28.805Z,101130.69
2022-10-05T13:49:14.770Z,101129.41
2022-10-05T13:51:50.519Z,101131.56
2022-10-05T13:54:32.234Z,101123.06
2022-10-05T13:57:23.698Z,101118.91
2022-10-05T14:00:03.270Z,101120.06
2022-10-05T14:02:38.049Z,101121.78
2022-10-05T14:05:19.921Z,101117.47
2022-10-05T14:07:54.450Z,101113.38
2022-10-05T14:10:34.235Z,101106.22
2022-10-05T14:13:15.993Z,101112.00
2022-10-05T14:16:00.184Z,101105.47
2022-10-05T14:18:31.311Z,101108.47
2022-10-05T14:21:03.527Z,101107.13
2022-10-05T14:23:30.720Z,101100.00
2022-10-05T14:25:58.052Z,101108.25
2022-10-05T14:28:30.492Z,101106.13
2022-10-05T14:30:59.526Z,101106.53
2022-10-05T14:33:32.795Z,101103.78
2022-10-05T14:36:00.613Z,101102.94
2022-10-05T14:38:31.242Z,101102.47
2022-10-05T14:41:04.952Z,101099.41
2022-10-05T14:43:32.740Z,101104.88
2022-10-05T14:46:23.223Z,101099.88
2022-10-05T14:49:32.033Z,101101.91
2022-10-05T14:51:58.905Z,101088.94
2022-10-05T14:54:30.772Z,101093.69
2022-10-05T14:57:06.267Z,101102.88
2022-10-05T15:00:02.192Z,101098.75
2022-10-05T15:02:38.757Z,101101.97
2022-10-05T15:05:17.019Z,101102.69
2022-10-05T15:07:48.399Z,101102.78
2022-10-05T15:10:41.687Z,101105.38
2022-10-05T15:13:33.280Z,101099.34
2022-10-05T15:16:19.942Z,101095.69
2022-10-05T15:18:59.180Z,101098.28
2022-10-05T15:21:52.614Z,101099.91
2022-10-05T15:24:24.512Z,101098.50
2022-10-05T15:26:58.989Z,101099.06
2022-10-05T15:29:38.913Z,101091.06
2022-10-05T15:32:24.197Z,101090.47
2022-10-05T15:35:25.087Z,101096.28
2022-10-05T15:38:20.885Z,101093.69
2022-10-05T15:40:59.623Z,101089.03
2022-10-05T15:43:35.989Z,101091.84
2022-10-05T15:46:51.288Z,101101.44
2022-10-05T15:49:19.706Z,101099.78
2022-10-05T15:52:14.419Z,101102.31
2022-10-05T15:55:03.173Z,101103.53
2022-10-05T15:57:38.638Z,101097.75
2022-10-05T16:00:15.462Z,101086.53
2022-10-05T16:03:06.061Z,101078.50
2022-10-05T16:06:05.967Z,101077.63
2022-10-05T16:08:51.873Z,101091.34
2022-10-05T16:11:51.791Z,101087.41
2022-10-05T16:14:40.051Z,101094.16
2022-10-05T16:17:36.904Z,101096.13
2022-10-05T16:20:18.891Z,101095.44
2022-10-05T16:23:11.236Z,101102.50
2022-10-05T16:25:44.745Z,101099.09
2022-10-05T16:28:50.507Z,101100.56
2022-10-05T16:31:38.128Z,101102.69
2022-10-05T16:34:19.978Z,101098.22
2022-10-05T16:37:00.499Z,101103.44
2022-10-05T16:39:52.088Z,101110.34
2022-10-05T16:42:35.526Z,101121.84
2022-10-05T16:45:17.766Z,101113.28
2022-10-05T16:48:02.999Z,101124.78
2022-10-05T16:50:50.336Z,101121.69
2022-10-05T16:53:23.300Z,101120.28
2022-10-05T16:56:06.356Z,101119.59
2022-10-05T16:59:08.987Z,101119.22
2022-10-05T17:01:58.337Z,101102.00
2022-10-05T17:04:39.178Z,101104.28
2022-10-05T17:07:41.646Z,101093.34
2022-10-05T17:10:35.879Z,101099.69
2022-10-05T17:13:15.452Z,101106.00
2022-10-05T17:15:58.268Z,101101.19
2022-10-05T17:18:30.295Z,101099.22
2022-10-05T17:21:10.153Z,101098.66
2022-10-05T17:23:55.179Z,101108.09
2022-10-05T17:26:40.657Z,101112.53
2022-10-05T17:29:15.607Z,101118.94
2022-10-05T17:32:07.534Z,101115.53
2022-10-05T17:34:37.835Z,101115.81
2022-10-05T17:37:36.384Z,101117.41
2022-10-05T17:40:30.686Z,101120.72
2022-10-05T17:43:24.873Z,101130.13
2022-10-05T17:45:54.056Z,101130.72
2022-10-05T17:48:50.669Z,101131.91
2022-10-05T17:51:49.473Z,101134.19
2022-10-05T17:55:10.705Z,101134.66
2022-10-05T17:57:40.418Z,101122.00
2022-10-05T18:00:25.734Z,101125.97
2022-10-05T18:02:57.365Z,101128.28
2022-10-05T18:05:29.756Z,101130.84
2022-10-05T18:08:17.307Z,101127.72
2022-10-05T18:11:05.879Z,101130.84
2022-10-05T18:13:42.544Z,101130.31
2022-10-05T18:16:13.026Z,101126.91
2022-10-05T18:18:43.136Z,101127.47
2022-10-05T18:21:18.352Z,101129.44
2022-10-05T18:24:17.867Z,101135.56
2022-10-05T18:26:54.157Z,101137.72
2022-10-05T18:30:05.335Z,101140.00
2022-10-05T18:32:40.993Z,101128.03
2022-10-05T18:35:16.191Z,101132.88
2022-10-05T18:38:06.053Z,101130.59
2022-10-05T18:40:51.697Z,101127.16
2022-10-05T18:43:42.765Z,101122.31
2022-10-05T18:46:16.478Z,101115.50
2022-10-05T18:48:50.394Z,101123.88
2022-10-05T18:51:55.201Z,101118.75
2022-10-05T18:54:35.970Z,101123.47
2022-10-05T18:57:25.517Z,101124.59
2022-10-05T19:00:02.277Z,101132.56
2022-10-05T19:02:44.289Z,101139.97
2022-10-05T19:05:47.482Z,101143.22
2022-10-05T19:08:18.227Z,101144.06
2022-10-05T19:11:23.267Z,101145.09
2022-10-05T19:14:11.220Z,101143.22
2022-10-05T19:16:55.319Z,101143.38
2022-10-05T19:19:49.352Z,101145.38
2022-10-05T19:22:31.811Z,101143.94
2022-10-05T19:25:14.614Z,101153.28
2022-10-05T19:28:08.276Z,101150.59
2022-10-05T19:31:04.639Z,101152.31
2022-10-05T19:33:52.894Z,101151.59
2022-10-05T19:36:27.981Z,101151.59
2022-10-05T19:39:00.992Z,101158.13
2022-10-05T19:41:47.294Z,101155.84
2022-10-05T19:44:45.261Z,101161.53
2022-10-05T19:47:29.851Z,101160.97
2022-10-05T19:49:57.233Z,101167.47
2022-10-05T19:52:52.376Z,101170.59
2022-10-05T19:55:22.365Z,101164.63
2022-10-05T19:57:53.289Z,101173.44
2022-10-05T20:00:31.339Z,101169.47
2022-10-05T20:03:12.849Z,101176.84
2022-10-05T20:05:40.138Z,101175.16
2022-10-05T20:08:08.773Z,101178.84
2022-10-05T20:10:35.686Z,101180.81
2022-10-05T20:13:04.918Z,101179.94
2022-10-05T20:15:56.305Z,101182.78
2022-10-05T20:19:03.293Z,101180.81
2022-10-05T20:21:46.841Z,101183.06
2022-10-05T20:24:20.293Z,101173.53
2022-10-05T20:27:02.026Z,101178.22
2022-10-05T20:29:30.846Z,101169.13
2022-10-05T20:31:58.242Z,101173.69
2022-10-05T20:34:27.183Z,101174.53
2022-10-05T20:36:53.827Z,101167.44
2022-10-05T20:39:23.390Z,101163.72
2022-10-05T20:41:50.489Z,101162.03
2022-10-05T20:44:17.894Z,101165.00
2022-10-05T20:46:46.609Z,101162.56
2022-10-05T20:49:15.380Z,101163.56
2022-10-05T20:51:42.094Z,101161.00
2022-10-05T20:54:09.762Z,101159.53
2022-10-05T20:56:36.449Z,101156.97
2022-10-05T20:59:17.560Z,101152.59
2022-10-05T21:01:48.125Z,101148.16
2022-10-05T21:04:21.176Z,101142.91
2022-10-05T21:06:48.035Z,101140.59
2022-10-05T21:09:19.379Z,101137.19
2022-10-05T21:11:49.681Z,101133.91
2022-10-05T21:14:17.094Z,101127.50
2022-10-05T21:16:46.558Z,101137.47
2022-10-05T21:19:14.650Z,101132.06
2022-10-05T21:21:44.122Z,101138.19
2022-10-05T21:24:13.757Z,101122.13
2022-10-05T21:26:42.457Z,101137.75
2022-10-05T21:29:12.736Z,101131.47
2022-10-05T21:31:40.687Z,101133.31
2022-10-05T21:34:08.211Z,101121.81
2022-10-05T21:36:35.773Z,101127.22
2022-10-05T21:39:03.756Z,101125.50
2022-10-05T21:41:30.993Z,101122.09
2022-10-05T21:43:57.634Z,101121.34
2022-10-05T21:46:28.263Z,101125.75
2022-10-05T21:48:57.254Z,101123.78
2022-10-05T21:51:26.833Z,101122.09
2022-10-05T21:53:59.550Z,101116.94
2022-10-05T21:56:31.713Z,101109.00
2022-10-05T21:58:59.673Z,101116.47
2022-10-05T22:01:26.493Z,101113.06
2022-10-05T22:03:53.212Z,101110.38
2022-10-05T22:06:19.969Z,101112.09
2022-10-05T22:08:46.557Z,101115.78
2022-10-05T22:11:16.738Z,101104.97
2022-10-05T22:13:51.999Z,101105.25
2022-10-05T22:16:23.845Z,101108.69
2022-10-05T22:18:53.662Z,101113.22
2022-10-05T22:21:21.466Z,101107.22
2022-10-05T22:23:49.532Z,101103.81
2022-10-05T22:26:21.013Z,101096.97
2022-10-05T22:28:52.475Z,101095.25
2022-10-05T22:31:20.782Z,101092.69
2022-10-05T22:33:49.084Z,101095.53
2022-10-05T22:36:19.277Z,101098.34
2022-10-05T22:38:47.673Z,101090.63
2022-10-05T22:41:18.338Z,101093.31
2022-10-05T22:43:50.278Z,101091.50
2022-10-05T22:46:18.424Z,101094.34
2022-10-05T22:48:45.903Z,101096.28
2022-10-05T22:51:12.797Z,101089.22
2022-10-05T22:53:40.929Z,101083.06
2022-10-05T22:56:11.672Z,101076.97
2022-10-05T22:58:39.389Z,101078.94
2022-10-05T23:01:08.993Z,101077.22
2022-10-05T23:03:37.321Z,101071.84
2022-10-05T23:06:10.891Z,101066.44
2022-10-05T23:08:39.388Z,101074.81
2022-10-05T23:11:15.268Z,101069.66
2022-10-05T23:13:43.759Z,101072.38
2022-10-05T23:16:16.695Z,101074.09
2022-10-05T23:18:50.447Z,101068.69
2022-10-05T23:21:20.142Z,101059.59
2022-10-05T23:23:51.318Z,101062.28
2022-10-05T23:26:23.071Z,101059.31
2022-10-05T23:28:51.618Z,101067.56
2022-10-05T23:31:21.797Z,101054.19
2022-10-05T23:33:50.322Z,101064.16
2022-10-05T23:36:20.896Z,101060.13
2022-10-05T23:38:49.192Z,101055.00
2022-10-05T23:41:17.814Z,101059.69
2022-10-05T23:43:46.911Z,101042.78
2022-10-05T23:46:15.328Z,101057.25
2022-10-05T23:48:42.036Z,101048.72
2022-10-05T23:51:12.534Z,101047.00
2022-10-05T23:53:40.447Z,101046.00
2022-10-05T23:56:08.437Z,101045.88
2022-10-05T23:58:35.022Z,101047.00
